Terminal Aerodrome Forecast
Issued by NWS

Home | Current Version | Previous Version | Text Only | Print | Product List | Glossary On
Versions: 1 2 3 4 5 6 7 8 9 10 11 12 13
000
FTUS42 TJSJ 301725
TAFJMZ
TAF
TJMZ 301725Z 3018/0118 05011KT P6SM VCSH SCT025 BKN040 BKN100
     FM301930 07006KT P6SM VCTS FEW025CB BKN040 BKN100
     FM302230 06006KT P6SM -RA FEW025 SCT050 BKN120
      AMD NOT SKED=

USA.gov is the U.S. government's official web portal to all federal, state and local government web resources and services.